createdAt,value
2022-12-29T00:02:39.092Z,98499.09
2022-12-29T00:05:25.033Z,98504.25
2022-12-29T00:08:10.311Z,98496.38
2022-12-29T00:10:55.794Z,98499.91
2022-12-29T00:14:00.898Z,98499.91
2022-12-29T00:16:46.782Z,98501.63
2022-12-29T00:19:50.896Z,98506.84
2022-12-29T00:22:55.009Z,98512.00
2022-12-29T00:25:59.202Z,98518.94
2022-12-29T00:29:03.175Z,98536.13
2022-12-29T00:32:07.641Z,98541.25
2022-12-29T00:35:11.390Z,98552.47
2022-12-29T00:38:21.670Z,98547.41
2022-12-29T00:41:26.695Z,98548.19
2022-12-29T00:44:15.336Z,98554.25
2022-12-29T00:47:05.482Z,98560.34
2022-12-29T00:49:51.145Z,98568.06
2022-12-29T00:52:36.925Z,98562.91
2022-12-29T00:55:22.338Z,98565.44
2022-12-29T00:58:07.562Z,98559.44
2022-12-29T01:00:53.120Z,98557.75
2022-12-29T01:03:39.406Z,98566.31
2022-12-29T01:06:25.267Z,98572.28
2022-12-29T01:09:30.091Z,98580.97
2022-12-29T01:12:15.749Z,98580.09
2022-12-29T01:15:01.138Z,98583.63
2022-12-29T01:17:46.688Z,98582.75
2022-12-29T01:20:32.084Z,98593.06
2022-12-29T01:23:17.596Z,98592.28
2022-12-29T01:26:15.250Z,98600.03
2022-12-29T01:29:00.661Z,98591.50
2022-12-29T01:31:46.188Z,98584.63
2022-12-29T01:34:31.701Z,98587.25
2022-12-29T01:37:17.278Z,98588.16
2022-12-29T01:40:04.309Z,98595.03
2022-12-29T01:42:51.118Z,98594.19
2022-12-29T01:45:36.652Z,98600.22
2022-12-29T01:48:22.543Z,98595.88
2022-12-29T01:51:08.366Z,98611.38
2022-12-29T01:53:56.461Z,98607.88
2022-12-29T01:56:43.105Z,98605.31
2022-12-29T01:59:33.176Z,98611.34
2022-12-29T02:02:19.259Z,98609.56
2022-12-29T02:05:12.471Z,98615.66
2022-12-29T02:07:58.181Z,98628.59
2022-12-29T02:10:45.532Z,98632.09
2022-12-29T02:13:31.229Z,98626.09
2022-12-29T02:16:38.327Z,98627.81
2022-12-29T02:19:33.356Z,98620.09
2022-12-29T02:22:37.292Z,98638.16
2022-12-29T02:25:47.819Z,98651.94
2022-12-29T02:29:06.671Z,98648.47
2022-12-29T02:32:27.536Z,98649.38
2022-12-29T02:36:08.916Z,98645.84
2022-12-29T02:39:19.027Z,98656.19
2022-12-29T02:42:35.749Z,98650.13
2022-12-29T02:45:38.090Z,98669.84
2022-12-29T02:48:42.666Z,98663.81
2022-12-29T02:51:33.500Z,98668.09
2022-12-29T02:54:40.328Z,98667.19
2022-12-29T02:57:26.758Z,98683.47
2022-12-29T03:00:16.200Z,98685.97
2022-12-29T03:03:18.045Z,98681.66
2022-12-29T03:06:31.642Z,98687.66
2022-12-29T03:09:38.917Z,98682.59
2022-12-29T03:12:48.814Z,98689.53
2022-12-29T03:16:06.645Z,98695.47
2022-12-29T03:19:15.498Z,98699.75
2022-12-29T03:22:29.317Z,98704.84
2022-12-29T03:25:29.324Z,98709.16
2022-12-29T03:28:22.177Z,98709.09
2022-12-29T03:31:10.371Z,98716.00
2022-12-29T03:33:59.793Z,98716.88
2022-12-29T03:36:57.840Z,98740.97
2022-12-29T03:39:44.769Z,98736.66
2022-12-29T03:42:33.879Z,98746.94
2022-12-29T03:45:20.847Z,98762.47
2022-12-29T03:48:06.441Z,98771.03
2022-12-29T03:50:52.599Z,98775.34
2022-12-29T03:53:37.932Z,98778.72
2022-12-29T03:56:23.462Z,98787.31
2022-12-29T03:59:10.027Z,98785.56
2022-12-29T04:01:58.684Z,98787.31
2022-12-29T04:04:44.280Z,98792.56
2022-12-29T04:07:29.576Z,98795.22
2022-12-29T04:10:17.572Z,98804.75
2022-12-29T04:13:05.644Z,98811.66
2022-12-29T04:15:51.057Z,98824.66
2022-12-29T04:18:37.361Z,98810.84
2022-12-29T04:21:22.886Z,98809.97
2022-12-29T04:24:08.401Z,98814.25
2022-12-29T04:26:58.505Z,98810.75
2022-12-29T04:30:07.884Z,98815.13
2022-12-29T04:33:11.911Z,98830.69
2022-12-29T04:35:58.805Z,98840.16
2022-12-29T04:38:44.012Z,98838.44
2022-12-29T04:41:29.876Z,98846.19
2022-12-29T04:44:15.382Z,98837.53
2022-12-29T04:47:19.302Z,98837.50
2022-12-29T04:50:41.070Z,98842.69
2022-12-29T04:53:37.767Z,98846.19
2022-12-29T04:56:23.481Z,98858.28
2022-12-29T04:59:09.043Z,98863.50
2022-12-29T05:01:54.613Z,98870.41
2022-12-29T05:04:40.311Z,98868.66
2022-12-29T05:07:26.242Z,98871.25
2022-12-29T05:10:13.545Z,98879.00
2022-12-29T05:13:00.160Z,98885.94
2022-12-29T05:15:52.212Z,98895.41
2022-12-29T05:18:37.803Z,98899.69
2022-12-29T05:21:23.062Z,98894.47
2022-12-29T05:24:08.482Z,98872.94
2022-12-29T05:26:54.470Z,98878.13
2022-12-29T05:29:58.863Z,98878.16
2022-12-29T05:32:44.411Z,98878.25
2022-12-29T05:35:29.940Z,98873.97
2022-12-29T05:38:16.075Z,98886.09
2022-12-29T05:41:02.840Z,98882.66
2022-12-29T05:44:17.262Z,98896.50
2022-12-29T05:47:32.841Z,98900.81
2022-12-29T05:50:48.896Z,98911.13
2022-12-29T05:53:36.043Z,98890.44
2022-12-29T05:56:21.829Z,98893.88
2022-12-29T05:59:13.765Z,98887.00
2022-12-29T06:02:00.345Z,98887.00
2022-12-29T06:04:47.153Z,98895.63
2022-12-29T06:07:32.521Z,98891.31
2022-12-29T06:10:19.070Z,98887.91
2022-12-29T06:13:16.330Z,98892.25
2022-12-29T06:16:04.992Z,98897.41
2022-12-29T06:18:51.068Z,98912.06
2022-12-29T06:21:36.406Z,98901.72
2022-12-29T06:24:22.516Z,98910.31
2022-12-29T06:27:08.388Z,98915.44
2022-12-29T06:29:53.865Z,98913.75
2022-12-29T06:32:39.314Z,98917.22
2022-12-29T06:35:27.935Z,98918.03
2022-12-29T06:38:13.714Z,98902.53
2022-12-29T06:40:59.292Z,98914.56
2022-12-29T06:43:54.044Z,98911.13
2022-12-29T06:46:58.727Z,98905.03
2022-12-29T06:49:44.237Z,98909.31
2022-12-29T06:52:29.666Z,98910.19
2022-12-29T06:55:15.231Z,98917.94
2022-12-29T06:58:02.062Z,98924.91
2022-12-29T07:00:47.610Z,98929.22
2022-12-29T07:03:33.154Z,98940.41
2022-12-29T07:06:18.844Z,98933.53
2022-12-29T07:09:04.766Z,98934.41
2022-12-29T07:11:50.214Z,98931.84
2022-12-29T07:14:40.860Z,98942.19
2022-12-29T07:17:28.414Z,98955.94
2022-12-29T07:20:13.828Z,98964.53
2022-12-29T07:22:59.381Z,98963.69
2022-12-29T07:25:44.947Z,98960.22
2022-12-29T07:28:30.579Z,98955.09
2022-12-29T07:31:18.142Z,98961.13
2022-12-29T07:34:03.907Z,98966.31
2022-12-29T07:36:49.139Z,98954.28
2022-12-29T07:39:34.479Z,98968.94
2022-12-29T07:42:19.944Z,98979.28
2022-12-29T07:45:10.733Z,98971.56
2022-12-29T07:48:22.520Z,98976.69
2022-12-29T07:51:07.980Z,98985.28
2022-12-29T07:53:53.312Z,99002.47
2022-12-29T07:56:38.638Z,98996.47
2022-12-29T07:59:24.020Z,99009.38
2022-12-29T08:02:12.435Z,99003.34
2022-12-29T08:04:58.300Z,99013.66
2022-12-29T08:07:45.313Z,98997.34
2022-12-29T08:10:30.649Z,98999.94
2022-12-29T08:13:15.934Z,98999.09
2022-12-29T08:16:01.515Z,99002.56
2022-12-29T08:18:47.195Z,99003.41
2022-12-29T08:21:32.520Z,98998.25
2022-12-29T08:24:17.924Z,99016.31
2022-12-29T08:27:12.049Z,99009.44
2022-12-29T08:30:04.574Z,99008.59
2022-12-29T08:32:49.933Z,99008.59
2022-12-29T08:35:35.379Z,99010.25
2022-12-29T08:38:20.735Z,99005.13
2022-12-29T08:41:06.434Z,99017.19
2022-12-29T08:43:52.089Z,99007.72
2022-12-29T08:46:37.846Z,99013.75
2022-12-29T08:49:23.056Z,99010.31
2022-12-29T08:52:09.399Z,99009.44
2022-12-29T08:54:54.849Z,99030.09
2022-12-29T08:57:40.652Z,99040.41
2022-12-29T09:00:32.729Z,99046.47
2022-12-29T09:03:37.527Z,99031.84
2022-12-29T09:06:24.172Z,99043.03
2022-12-29T09:09:09.671Z,99049.91
2022-12-29T09:11:55.190Z,99058.50
2022-12-29T09:14:40.910Z,99067.97
2022-12-29T09:17:44.773Z,99078.28
2022-12-29T09:20:30.366Z,99080.84
2022-12-29T09:23:15.726Z,99095.50
2022-12-29T09:26:01.407Z,99102.38
2022-12-29T09:28:48.202Z,99102.34
2022-12-29T09:31:33.838Z,99104.97
2022-12-29T09:34:19.628Z,99105.81
2022-12-29T09:37:04.995Z,99103.22
2022-12-29T09:39:54.262Z,99107.50
2022-12-29T09:42:51.603Z,99113.56
2022-12-29T09:45:56.177Z,99117.88
2022-12-29T09:48:47.443Z,99116.16
2022-12-29T09:51:36.298Z,99117.84
2022-12-29T09:54:39.843Z,99130.75
2022-12-29T09:57:33.805Z,99129.03
2022-12-29T10:00:29.557Z,99139.34
2022-12-29T10:03:18.037Z,99151.41
2022-12-29T10:06:23.530Z,99155.69
2022-12-29T10:09:36.048Z,99154.81
2022-12-29T10:12:46.403Z,99171.16
2022-12-29T10:15:43.849Z,99170.31
2022-12-29T10:18:58.678Z,99177.19
2022-12-29T10:21:59.434Z,99183.22
2022-12-29T10:24:48.603Z,99204.69
2022-12-29T10:27:34.567Z,99192.63
2022-12-29T10:30:20.606Z,99206.41
2022-12-29T10:33:11.325Z,99180.59
2022-12-29T10:35:57.466Z,99196.91
2022-12-29T10:38:54.287Z,99196.91
2022-12-29T10:41:47.392Z,99209.81
2022-12-29T10:44:34.357Z,99231.31
2022-12-29T10:47:25.727Z,99222.69
2022-12-29T10:50:13.873Z,99233.88
2022-12-29T10:53:03.873Z,99238.19
2022-12-29T10:55:50.633Z,99240.78
2022-12-29T10:58:37.056Z,99233.00
2022-12-29T11:01:25.351Z,99235.63
2022-12-29T11:04:26.557Z,99253.69
2022-12-29T11:07:16.136Z,99239.06
2022-12-29T11:10:29.950Z,99251.09
2022-12-29T11:13:26.345Z,99239.84
2022-12-29T11:16:13.335Z,99253.63
2022-12-29T11:18:59.671Z,99257.06
2022-12-29T11:21:46.129Z,99255.38
2022-12-29T11:24:31.436Z,99262.31
2022-12-29T11:27:23.750Z,99267.50
2022-12-29T11:30:23.726Z,99273.50
2022-12-29T11:33:10.504Z,99282.13
2022-12-29T11:36:04.124Z,99277.78
2022-12-29T11:38:51.956Z,99288.13
2022-12-29T11:41:37.286Z,99283.84
2022-12-29T11:44:22.845Z,99277.78
2022-12-29T11:47:12.661Z,99280.34
2022-12-29T11:50:01.396Z,99296.75
2022-12-29T11:52:49.466Z,99302.78
2022-12-29T11:55:35.146Z,99302.78
2022-12-29T11:58:20.899Z,99289.00
2022-12-29T12:01:14.957Z,99294.16
2022-12-29T12:04:03.270Z,99311.38
2022-12-29T12:07:13.808Z,99301.91
2022-12-29T12:10:07.389Z,99308.78
2022-12-29T12:13:07.351Z,99304.47
2022-12-29T12:16:23.768Z,99300.16
2022-12-29T12:19:18.291Z,99314.81
2022-12-29T12:22:18.829Z,99309.63
2022-12-29T12:25:13.147Z,99326.00
2022-12-29T12:28:05.928Z,99313.06
2022-12-29T12:30:56.268Z,99329.44
2022-12-29T12:33:45.991Z,99327.72
2022-12-29T12:36:46.280Z,99328.59
2022-12-29T12:39:50.177Z,99337.19
2022-12-29T12:43:07.566Z,99344.88
2022-12-29T12:46:02.706Z,99342.28
2022-12-29T12:49:31.810Z,99341.38
2022-12-29T12:53:02.734Z,99339.59
2022-12-29T12:56:25.745Z,99340.41
2022-12-29T12:59:46.747Z,99343.88
2022-12-29T13:02:50.961Z,99347.38
2022-12-29T13:05:57.578Z,99348.25
2022-12-29T13:08:57.926Z,99351.66
2022-12-29T13:11:56.382Z,99364.59
2022-12-29T13:15:17.497Z,99374.94
2022-12-29T13:18:28.995Z,99383.59
2022-12-29T13:21:50.127Z,99382.72
2022-12-29T13:24:41.674Z,99381.91
2022-12-29T13:27:50.826Z,99401.75
2022-12-29T13:30:42.904Z,99403.50
2022-12-29T13:33:47.313Z,99412.13
2022-12-29T13:36:45.240Z,99409.56
2022-12-29T13:39:44.167Z,99416.47
2022-12-29T13:42:30.909Z,99435.41
2022-12-29T13:45:20.460Z,99437.13
2022-12-29T13:48:35.234Z,99434.53
2022-12-29T13:51:27.960Z,99431.09
2022-12-29T13:54:43.393Z,99429.38
2022-12-29T13:57:41.698Z,99436.28
2022-12-29T14:00:31.636Z,99441.44
2022-12-29T14:03:41.554Z,99443.19
2022-12-29T14:06:31.581Z,99436.28
2022-12-29T14:09:44.666Z,99434.56
2022-12-29T14:12:39.676Z,99442.31
2022-12-29T14:15:27.311Z,99450.94
2022-12-29T14:18:17.844Z,99447.50
2022-12-29T14:21:11.494Z,99447.47
2022-12-29T14:24:39.800Z,99459.56
2022-12-29T14:27:31.260Z,99463.00
2022-12-29T14:30:49.670Z,99455.25
2022-12-29T14:33:36.463Z,99469.91
2022-12-29T14:36:36.051Z,99466.44
2022-12-29T14:39:27.745Z,99468.19
2022-12-29T14:42:23.721Z,99475.91
2022-12-29T14:45:29.728Z,99472.44
2022-12-29T14:48:43.432Z,99482.75
2022-12-29T14:51:33.555Z,99496.53
2022-12-29T14:54:34.307Z,99493.94
2022-12-29T14:57:34.180Z,99488.81
2022-12-29T15:00:24.766Z,99495.69
2022-12-29T15:03:24.471Z,99503.41
2022-12-29T15:06:13.748Z,99501.69
2022-12-29T15:09:25.924Z,99498.25
2022-12-29T15:12:20.787Z,99499.09
2022-12-29T15:15:27.693Z,99506.84
2022-12-29T15:18:23.781Z,99500.78
2022-12-29T15:21:15.496Z,99493.94
2022-12-29T15:24:01.825Z,99504.25
2022-12-29T15:26:50.375Z,99505.09
2022-12-29T15:29:45.162Z,99505.94
2022-12-29T15:32:41.227Z,99522.25
2022-12-29T15:35:50.406Z,99527.41
2022-12-29T15:38:40.335Z,99529.97
2022-12-29T15:41:33.675Z,99548.00
2022-12-29T15:44:25.077Z,99554.88
2022-12-29T15:47:18.858Z,99562.59
2022-12-29T15:50:09.881Z,99559.13
2022-12-29T15:52:56.836Z,99560.88
2022-12-29T15:55:44.201Z,99558.25
2022-12-29T15:58:31.885Z,99572.00
2022-12-29T16:01:34.818Z,99565.09
2022-12-29T16:04:20.452Z,99567.63
2022-12-29T16:07:07.772Z,99566.72
2022-12-29T16:10:03.773Z,99574.44
2022-12-29T16:12:49.116Z,99563.28
2022-12-29T16:15:34.723Z,99564.13
2022-12-29T16:18:28.401Z,99567.56
2022-12-29T16:21:33.818Z,99562.38
2022-12-29T16:24:24.580Z,99576.16
2022-12-29T16:27:19.298Z,99592.53
2022-12-29T16:30:31.188Z,99587.44
2022-12-29T16:33:49.393Z,99594.31
2022-12-29T16:36:41.927Z,99596.97
2022-12-29T16:39:45.534Z,99594.38
2022-12-29T16:42:51.273Z,99596.06
2022-12-29T16:45:46.691Z,99618.44
2022-12-29T16:48:50.850Z,99629.56
2022-12-29T16:51:39.198Z,99629.56
2022-12-29T16:54:29.603Z,99632.13
2022-12-29T16:57:15.467Z,99633.88
2022-12-29T17:00:04.168Z,99637.28
2022-12-29T17:02:52.170Z,99632.16
2022-12-29T17:05:37.840Z,99636.47
2022-12-29T17:08:26.018Z,99657.16
2022-12-29T17:11:44.448Z,99654.56
2022-12-29T17:14:41.849Z,99642.44
2022-12-29T17:17:35.607Z,99657.03
2022-12-29T17:20:30.620Z,99666.53
2022-12-29T17:23:22.746Z,99670.00
2022-12-29T17:26:13.159Z,99661.38
2022-12-29T17:28:58.736Z,99677.69
2022-12-29T17:31:44.074Z,99680.25
2022-12-29T17:34:30.265Z,99687.16
2022-12-29T17:37:30.540Z,99684.53
2022-12-29T17:40:19.179Z,99675.03
2022-12-29T17:43:04.556Z,99672.41
2022-12-29T17:45:54.558Z,99676.66
2022-12-29T17:48:39.925Z,99671.50
2022-12-29T17:51:25.483Z,99686.09
2022-12-29T17:54:25.768Z,99678.28
2022-12-29T17:57:16.144Z,99691.16
2022-12-29T18:00:01.544Z,99685.19
2022-12-29T18:02:48.525Z,99685.13
2022-12-29T18:05:35.011Z,99680.81
2022-12-29T18:08:20.386Z,99680.75
2022-12-29T18:11:32.162Z,99678.09
2022-12-29T18:14:17.872Z,99679.72
2022-12-29T18:17:13.008Z,99681.47
2022-12-29T18:19:58.360Z,99682.31
2022-12-29T18:22:43.947Z,99685.75
2022-12-29T18:25:46.288Z,99673.66
2022-12-29T18:28:32.214Z,99680.47
2022-12-29T18:31:34.414Z,99682.09
2022-12-29T18:34:20.150Z,99689.09
2022-12-29T18:37:05.877Z,99688.31
2022-12-29T18:39:51.608Z,99687.56
2022-12-29T18:42:36.940Z,99684.16
2022-12-29T18:45:24.083Z,99672.09
2022-12-29T18:48:09.537Z,99670.31
2022-12-29T18:50:55.230Z,99660.94
2022-12-29T18:53:40.910Z,99654.94
2022-12-29T18:56:26.241Z,99654.09
2022-12-29T18:59:11.927Z,99664.47
2022-12-29T19:01:57.577Z,99658.44
2022-12-29T19:04:43.492Z,99666.22
2022-12-29T19:07:29.190Z,99655.94
2022-12-29T19:10:14.811Z,99659.41
2022-12-29T19:13:00.791Z,99645.63
2022-12-29T19:15:47.199Z,99644.84
2022-12-29T19:18:43.640Z,99633.69
2022-12-29T19:21:30.125Z,99625.97
2022-12-29T19:24:15.809Z,99622.56
2022-12-29T19:27:01.168Z,99621.78
2022-12-29T19:29:46.521Z,99613.16
2022-12-29T19:32:31.894Z,99610.59
2022-12-29T19:35:17.331Z,99600.34
2022-12-29T19:38:04.113Z,99589.16
2022-12-29T19:40:50.896Z,99569.41
2022-12-29T19:43:36.581Z,99560.81
2022-12-29T19:46:23.377Z,99554.78
2022-12-29T19:49:08.972Z,99537.63
2022-12-29T19:51:54.297Z,99524.75
2022-12-29T19:54:39.699Z,99510.09
2022-12-29T19:57:26.267Z,99498.09
2022-12-29T20:00:13.773Z,99502.41
2022-12-29T20:02:59.125Z,99496.38
2022-12-29T20:05:49.141Z,99491.19
2022-12-29T20:08:35.279Z,99494.66
2022-12-29T20:11:20.972Z,99496.38
2022-12-29T20:14:06.346Z,99494.69
2022-12-29T20:17:09.956Z,99479.19
2022-12-29T20:19:56.708Z,99492.97
2022-12-29T20:22:41.971Z,99488.69
2022-12-29T20:25:46.609Z,99485.28
2022-12-29T20:28:33.013Z,99472.38
2022-12-29T20:31:28.908Z,99468.94
2022-12-29T20:34:14.331Z,99448.31
2022-12-29T20:36:59.763Z,99445.75
2022-12-29T20:39:45.588Z,99441.44
2022-12-29T20:42:31.189Z,99441.44
2022-12-29T20:45:16.438Z,99444.91
2022-12-29T20:48:01.792Z,99424.22
2022-12-29T20:50:47.040Z,99410.44
2022-12-29T20:53:33.776Z,99403.56
2022-12-29T20:56:22.517Z,99395.81
2022-12-29T20:59:27.010Z,99386.31
2022-12-29T21:02:22.057Z,99388.91
2022-12-29T21:05:23.633Z,99379.44
2022-12-29T21:08:11.692Z,99376.84
2022-12-29T21:10:58.879Z,99369.09
2022-12-29T21:13:44.897Z,99363.91
2022-12-29T21:16:30.628Z,99360.50
2022-12-29T21:19:16.429Z,99350.16
2022-12-29T21:22:02.055Z,99338.94
2022-12-29T21:24:47.754Z,99331.19
2022-12-29T21:27:33.472Z,99319.13
2022-12-29T21:30:18.981Z,99309.69
2022-12-29T21:33:05.469Z,99301.03
2022-12-29T21:35:50.987Z,99298.47
2022-12-29T21:38:36.558Z,99290.72
2022-12-29T21:41:22.648Z,99284.72
2022-12-29T21:44:26.529Z,99275.22
2022-12-29T21:47:12.166Z,99273.47
2022-12-29T21:49:57.818Z,99262.28
2022-12-29T21:52:42.987Z,99252.81
2022-12-29T21:55:28.389Z,99246.78
2022-12-29T21:58:32.309Z,99239.91
2022-12-29T22:01:37.309Z,99221.81
2022-12-29T22:04:43.984Z,99203.75
2022-12-29T22:07:48.571Z,99202.91
2022-12-29T22:10:52.825Z,99182.22
2022-12-29T22:13:39.420Z,99171.91
2022-12-29T22:16:25.420Z,99168.47
2022-12-29T22:19:11.195Z,99150.38
2022-12-29T22:21:56.660Z,99143.50
2022-12-29T22:24:42.048Z,99135.75
2022-12-29T22:27:27.489Z,99119.34
2022-12-29T22:30:13.792Z,99087.47
2022-12-29T22:32:59.271Z,99092.63
2022-12-29T22:35:45.117Z,99061.59
2022-12-29T22:38:30.476Z,99049.53
2022-12-29T22:41:16.755Z,99040.03
2022-12-29T22:44:02.123Z,99033.97
2022-12-29T22:46:48.027Z,99016.72
2022-12-29T22:49:33.292Z,99002.00
2022-12-29T22:52:19.156Z,99001.09
2022-12-29T22:55:07.201Z,98996.78
2022-12-29T22:57:52.677Z,98987.25
2022-12-29T23:00:38.049Z,98982.94
2022-12-29T23:03:23.492Z,98979.47
2022-12-29T23:06:12.708Z,98963.91
2022-12-29T23:09:00.497Z,98951.75
2022-12-29T23:11:46.445Z,98943.09
2022-12-29T23:14:31.990Z,98929.25
2022-12-29T23:17:17.528Z,98914.56
2022-12-29T23:20:03.669Z,98913.56
2022-12-29T23:22:50.534Z,98912.50
2022-12-29T23:25:37.566Z,98918.31
2022-12-29T23:28:23.144Z,98916.16
2022-12-29T23:31:09.002Z,98909.59
2022-12-29T23:33:55.762Z,98880.34
2022-12-29T23:36:41.535Z,98847.94
2022-12-29T23:39:28.761Z,98845.22
2022-12-29T23:42:14.481Z,98817.38
2022-12-29T23:44:59.820Z,98809.50
2022-12-29T23:47:45.312Z,98793.97
2022-12-29T23:50:30.763Z,98798.09
2022-12-29T23:53:16.394Z,98773.50
2022-12-29T23:56:02.600Z,98778.53
2022-12-29T23:58:49.236Z,98776.63
